sensor_id;sensor_type;location;lat;lon;timestamp;P1;durP1;ratioP1;P2;durP2;ratioP2
52067;SDS011;60237;52.338;21.228;2023-06-10T00:00:49;36.75;;;26.77;;
52067;SDS011;60237;52.338;21.228;2023-06-10T00:03:17;56.63;;;33.78;;
52067;SDS011;60237;52.338;21.228;2023-06-10T00:05:44;73.97;;;31.17;;
52067;SDS011;60237;52.338;21.228;2023-06-10T00:08:11;45.55;;;24.70;;
52067;SDS011;60237;52.338;21.228;2023-06-10T00:10:38;81.20;;;28.52;;
52067;SDS011;60237;52.338;21.228;2023-06-10T00:13:05;52.67;;;25.70;;
52067;SDS011;60237;52.338;21.228;2023-06-10T00:15:34;48.97;;;25.08;;
52067;SDS011;60237;52.338;21.228;2023-06-10T00:18:04;45.47;;;23.35;;
52067;SDS011;60237;52.338;21.228;2023-06-10T00:20:31;56.42;;;21.13;;
52067;SDS011;60237;52.338;21.228;2023-06-10T00:22:58;44.10;;;24.77;;
52067;SDS011;60237;52.338;21.228;2023-06-10T00:25:27;51.53;;;23.25;;
52067;SDS011;60237;52.338;21.228;2023-06-10T00:27:54;49.53;;;20.85;;
52067;SDS011;60237;52.338;21.228;2023-06-10T00:30:21;57.58;;;24.48;;
52067;SDS011;60237;52.338;21.228;2023-06-10T00:32:48;38.15;;;23.77;;
52067;SDS011;60237;52.338;21.228;2023-06-10T00:35:14;41.08;;;20.17;;
52067;SDS011;60237;52.338;21.228;2023-06-10T00:37:41;80.88;;;23.70;;
52067;SDS011;60237;52.338;21.228;2023-06-10T00:40:08;46.75;;;21.40;;
52067;SDS011;60237;52.338;21.228;2023-06-10T00:42:37;40.47;;;21.52;;
52067;SDS011;60237;52.338;21.228;2023-06-10T00:45:05;24.70;;;20.48;;
52067;SDS011;60237;52.338;21.228;2023-06-10T00:47:32;37.03;;;20.73;;
52067;SDS011;60237;52.338;21.228;2023-06-10T00:49:59;62.00;;;21.35;;
52067;SDS011;60237;52.338;21.228;2023-06-10T00:52:27;52.13;;;20.90;;
52067;SDS011;60237;52.338;21.228;2023-06-10T00:54:54;43.42;;;21.58;;
52067;SDS011;60237;52.338;21.228;2023-06-10T00:57:21;52.95;;;21.33;;
52067;SDS011;60237;52.338;21.228;2023-06-10T00:59:48;30.77;;;18.30;;
52067;SDS011;60237;52.338;21.228;2023-06-10T01:02:15;40.30;;;18.73;;
52067;SDS011;60237;52.338;21.228;2023-06-10T01:04:43;80.90;;;23.25;;
52067;SDS011;60237;52.338;21.228;2023-06-10T01:09:48;52.30;;;18.70;;
52067;SDS011;60237;52.338;21.228;2023-06-10T01:12:19;46.60;;;18.27;;
52067;SDS011;60237;52.338;21.228;2023-06-10T01:14:47;44.65;;;18.17;;
52067;SDS011;60237;52.338;21.228;2023-06-10T01:17:15;51.63;;;16.88;;
52067;SDS011;60237;52.338;21.228;2023-06-10T01:19:43;52.80;;;16.52;;
52067;SDS011;60237;52.338;21.228;2023-06-10T01:22:10;28.33;;;13.05;;
52067;SDS011;60237;52.338;21.228;2023-06-10T01:24:42;45.33;;;18.10;;
52067;SDS011;60237;52.338;21.228;2023-06-10T01:27:11;32.83;;;11.45;;
52067;SDS011;60237;52.338;21.228;2023-06-10T01:29:41;28.52;;;14.32;;
52067;SDS011;60237;52.338;21.228;2023-06-10T01:32:17;38.50;;;12.80;;
52067;SDS011;60237;52.338;21.228;2023-06-10T01:34:45;42.40;;;12.88;;
52067;SDS011;60237;52.338;21.228;2023-06-10T01:37:12;31.08;;;14.45;;
52067;SDS011;60237;52.338;21.228;2023-06-10T01:39:39;27.60;;;9.85;;
52067;SDS011;60237;52.338;21.228;2023-06-10T01:42:08;33.33;;;11.10;;
52067;SDS011;60237;52.338;21.228;2023-06-10T01:44:36;41.22;;;12.20;;
52067;SDS011;60237;52.338;21.228;2023-06-10T01:47:07;43.45;;;12.07;;
52067;SDS011;60237;52.338;21.228;2023-06-10T01:49:33;94.22;;;16.95;;
52067;SDS011;60237;52.338;21.228;2023-06-10T01:52:00;34.05;;;12.98;;
52067;SDS011;60237;52.338;21.228;2023-06-10T01:54:26;42.65;;;13.30;;
52067;SDS011;60237;52.338;21.228;2023-06-10T01:56:53;30.52;;;14.02;;
52067;SDS011;60237;52.338;21.228;2023-06-10T01:59:20;28.85;;;12.60;;
52067;SDS011;60237;52.338;21.228;2023-06-10T02:01:47;446.02;;;66.15;;
52067;SDS011;60237;52.338;21.228;2023-06-10T02:04:14;49.53;;;16.65;;
52067;SDS011;60237;52.338;21.228;2023-06-10T02:06:41;58.95;;;16.58;;
52067;SDS011;60237;52.338;21.228;2023-06-10T02:09:09;70.68;;;17.63;;
52067;SDS011;60237;52.338;21.228;2023-06-10T02:11:36;42.63;;;14.40;;
52067;SDS011;60237;52.338;21.228;2023-06-10T02:14:03;58.67;;;17.65;;
52067;SDS011;60237;52.338;21.228;2023-06-10T02:16:30;78.45;;;19.05;;
52067;SDS011;60237;52.338;21.228;2023-06-10T02:18:58;44.17;;;15.18;;
52067;SDS011;60237;52.338;21.228;2023-06-10T02:21:26;63.30;;;17.75;;
52067;SDS011;60237;52.338;21.228;2023-06-10T02:23:53;39.92;;;14.20;;
52067;SDS011;60237;52.338;21.228;2023-06-10T02:26:20;52.33;;;14.65;;
52067;SDS011;60237;52.338;21.228;2023-06-10T02:28:48;70.32;;;16.35;;
52067;SDS011;60237;52.338;21.228;2023-06-10T02:31:15;29.75;;;14.20;;
52067;SDS011;60237;52.338;21.228;2023-06-10T02:33:45;38.45;;;13.00;;
52067;SDS011;60237;52.338;21.228;2023-06-10T02:36:13;43.40;;;14.00;;
52067;SDS011;60237;52.338;21.228;2023-06-10T02:38:42;49.85;;;13.02;;
52067;SDS011;60237;52.338;21.228;2023-06-10T02:41:09;52.35;;;14.98;;
52067;SDS011;60237;52.338;21.228;2023-06-10T02:43:37;93.00;;;16.45;;
52067;SDS011;60237;52.338;21.228;2023-06-10T02:46:04;18.23;;;10.50;;
52067;SDS011;60237;52.338;21.228;2023-06-10T02:48:34;60.67;;;15.95;;
52067;SDS011;60237;52.338;21.228;2023-06-10T02:51:07;44.05;;;14.68;;
52067;SDS011;60237;52.338;21.228;2023-06-10T02:53:38;44.45;;;11.88;;
52067;SDS011;60237;52.338;21.228;2023-06-10T02:56:09;69.72;;;14.73;;
52067;SDS011;60237;52.338;21.228;2023-06-10T02:58:36;81.85;;;16.52;;
52067;SDS011;60237;52.338;21.228;2023-06-10T03:01:04;42.78;;;11.35;;
52067;SDS011;60237;52.338;21.228;2023-06-10T03:03:41;69.28;;;16.27;;
52067;SDS011;60237;52.338;21.228;2023-06-10T03:06:13;39.20;;;11.90;;
52067;SDS011;60237;52.338;21.228;2023-06-10T03:08:41;52.95;;;14.40;;
52067;SDS011;60237;52.338;21.228;2023-06-10T03:11:12;50.67;;;15.93;;
52067;SDS011;60237;52.338;21.228;2023-06-10T03:13:40;89.60;;;16.42;;
52067;SDS011;60237;52.338;21.228;2023-06-10T03:16:10;44.15;;;12.48;;
52067;SDS011;60237;52.338;21.228;2023-06-10T03:18:39;56.28;;;13.32;;
52067;SDS011;60237;52.338;21.228;2023-06-10T03:21:08;64.72;;;11.77;;
52067;SDS011;60237;52.338;21.228;2023-06-10T03:23:42;54.85;;;12.15;;
52067;SDS011;60237;52.338;21.228;2023-06-10T03:26:10;31.63;;;8.63;;
52067;SDS011;60237;52.338;21.228;2023-06-10T03:28:40;64.25;;;13.77;;
52067;SDS011;60237;52.338;21.228;2023-06-10T03:31:08;37.25;;;11.40;;
52067;SDS011;60237;52.338;21.228;2023-06-10T03:33:36;56.25;;;11.82;;
52067;SDS011;60237;52.338;21.228;2023-06-10T03:36:03;55.25;;;14.50;;
52067;SDS011;60237;52.338;21.228;2023-06-10T03:38:30;29.65;;;8.45;;
52067;SDS011;60237;52.338;21.228;2023-06-10T03:40:57;62.15;;;13.82;;
52067;SDS011;60237;52.338;21.228;2023-06-10T03:43:25;48.67;;;13.00;;
52067;SDS011;60237;52.338;21.228;2023-06-10T03:45:53;26.63;;;10.00;;
52067;SDS011;60237;52.338;21.228;2023-06-10T03:48:20;25.67;;;9.23;;
52067;SDS011;60237;52.338;21.228;2023-06-10T03:50:50;50.78;;;12.02;;
52067;SDS011;60237;52.338;21.228;2023-06-10T03:53:19;38.65;;;11.23;;
52067;SDS011;60237;52.338;21.228;2023-06-10T03:55:46;73.30;;;14.90;;
52067;SDS011;60237;52.338;21.228;2023-06-10T03:58:15;27.95;;;11.93;;
52067;SDS011;60237;52.338;21.228;2023-06-10T04:00:42;34.10;;;16.10;;
52067;SDS011;60237;52.338;21.228;2023-06-10T04:03:09;42.70;;;21.75;;
52067;SDS011;60237;52.338;21.228;2023-06-10T04:05:41;34.35;;;22.77;;
52067;SDS011;60237;52.338;21.228;2023-06-10T04:08:08;34.03;;;25.15;;
52067;SDS011;60237;52.338;21.228;2023-06-10T04:10:35;78.60;;;25.60;;
52067;SDS011;60237;52.338;21.228;2023-06-10T04:13:02;71.70;;;25.75;;
52067;SDS011;60237;52.338;21.228;2023-06-10T04:15:36;33.22;;;26.00;;
52067;SDS011;60237;52.338;21.228;2023-06-10T04:18:07;37.67;;;25.48;;
52067;SDS011;60237;52.338;21.228;2023-06-10T04:20:35;46.65;;;33.35;;
52067;SDS011;60237;52.338;21.228;2023-06-10T04:23:03;66.55;;;38.22;;
52067;SDS011;60237;52.338;21.228;2023-06-10T04:25:30;70.03;;;30.33;;
52067;SDS011;60237;52.338;21.228;2023-06-10T04:27:57;38.33;;;33.90;;
52067;SDS011;60237;52.338;21.228;2023-06-10T04:30:24;60.65;;;43.97;;
52067;SDS011;60237;52.338;21.228;2023-06-10T04:32:51;88.90;;;47.80;;
52067;SDS011;60237;52.338;21.228;2023-06-10T04:35:19;48.67;;;43.20;;
52067;SDS011;60237;52.338;21.228;2023-06-10T04:37:47;80.93;;;42.67;;
52067;SDS011;60237;52.338;21.228;2023-06-10T04:40:15;64.47;;;44.50;;
52067;SDS011;60237;52.338;21.228;2023-06-10T04:42:44;53.63;;;44.97;;
52067;SDS011;60237;52.338;21.228;2023-06-10T04:45:12;65.60;;;46.15;;
52067;SDS011;60237;52.338;21.228;2023-06-10T04:47:40;55.42;;;40.53;;
52067;SDS011;60237;52.338;21.228;2023-06-10T04:50:07;52.45;;;42.50;;
52067;SDS011;60237;52.338;21.228;2023-06-10T04:52:34;102.88;;;55.22;;
52067;SDS011;60237;52.338;21.228;2023-06-10T04:55:01;74.00;;;43.97;;
52067;SDS011;60237;52.338;21.228;2023-06-10T04:57:27;53.63;;;45.55;;
52067;SDS011;60237;52.338;21.228;2023-06-10T04:59:54;54.70;;;47.03;;
52067;SDS011;60237;52.338;21.228;2023-06-10T05:02:21;68.53;;;48.05;;
52067;SDS011;60237;52.338;21.228;2023-06-10T05:04:48;50.70;;;42.38;;
52067;SDS011;60237;52.338;21.228;2023-06-10T05:07:15;51.78;;;46.60;;
52067;SDS011;60237;52.338;21.228;2023-06-10T05:09:42;110.53;;;52.90;;
52067;SDS011;60237;52.338;21.228;2023-06-10T05:12:09;52.08;;;46.63;;
52067;SDS011;60237;52.338;21.228;2023-06-10T05:14:36;57.63;;;43.58;;
52067;SDS011;60237;52.338;21.228;2023-06-10T05:17:03;112.45;;;52.17;;
52067;SDS011;60237;52.338;21.228;2023-06-10T05:19:32;96.65;;;45.90;;
52067;SDS011;60237;52.338;21.228;2023-06-10T05:21:59;45.72;;;37.25;;
52067;SDS011;60237;52.338;21.228;2023-06-10T05:24:26;62.47;;;40.83;;
52067;SDS011;60237;52.338;21.228;2023-06-10T05:26:53;50.45;;;37.50;;
52067;SDS011;60237;52.338;21.228;2023-06-10T05:29:20;38.67;;;34.05;;
52067;SDS011;60237;52.338;21.228;2023-06-10T05:31:47;118.85;;;40.28;;
52067;SDS011;60237;52.338;21.228;2023-06-10T05:34:14;36.63;;;30.35;;
52067;SDS011;60237;52.338;21.228;2023-06-10T05:36:41;46.22;;;32.30;;
52067;SDS011;60237;52.338;21.228;2023-06-10T05:39:09;72.32;;;33.90;;
52067;SDS011;60237;52.338;21.228;2023-06-10T05:41:36;59.58;;;41.13;;
52067;SDS011;60237;52.338;21.228;2023-06-10T05:44:03;61.60;;;34.45;;
52067;SDS011;60237;52.338;21.228;2023-06-10T05:46:31;72.30;;;45.42;;
52067;SDS011;60237;52.338;21.228;2023-06-10T05:48:58;58.08;;;36.08;;
52067;SDS011;60237;52.338;21.228;2023-06-10T05:51:25;52.80;;;40.03;;
52067;SDS011;60237;52.338;21.228;2023-06-10T05:53:52;70.40;;;40.63;;
52067;SDS011;60237;52.338;21.228;2023-06-10T05:56:19;58.17;;;44.35;;
52067;SDS011;60237;52.338;21.228;2023-06-10T05:58:49;73.22;;;37.17;;
52067;SDS011;60237;52.338;21.228;2023-06-10T06:01:18;93.88;;;43.47;;
52067;SDS011;60237;52.338;21.228;2023-06-10T06:03:46;51.60;;;43.60;;
52067;SDS011;60237;52.338;21.228;2023-06-10T06:06:15;56.80;;;38.75;;
52067;SDS011;60237;52.338;21.228;2023-06-10T06:08:43;71.05;;;45.92;;
52067;SDS011;60237;52.338;21.228;2023-06-10T06:11:12;81.07;;;47.75;;
52067;SDS011;60237;52.338;21.228;2023-06-10T06:13:40;134.38;;;52.28;;
52067;SDS011;60237;52.338;21.228;2023-06-10T06:16:09;53.55;;;43.78;;
52067;SDS011;60237;52.338;21.228;2023-06-10T06:18:37;60.22;;;50.25;;
52067;SDS011;60237;52.338;21.228;2023-06-10T06:21:03;72.63;;;50.85;;
52067;SDS011;60237;52.338;21.228;2023-06-10T06:23:31;88.13;;;63.35;;
52067;SDS011;60237;52.338;21.228;2023-06-10T06:26:00;165.75;;;62.90;;
52067;SDS011;60237;52.338;21.228;2023-06-10T06:28:29;112.72;;;58.22;;
52067;SDS011;60237;52.338;21.228;2023-06-10T06:30:58;85.47;;;48.80;;
52067;SDS011;60237;52.338;21.228;2023-06-10T06:33:27;69.22;;;50.17;;
52067;SDS011;60237;52.338;21.228;2023-06-10T06:35:55;85.65;;;55.38;;
52067;SDS011;60237;52.338;21.228;2023-06-10T06:38:22;150.50;;;101.93;;
52067;SDS011;60237;52.338;21.228;2023-06-10T06:40:49;101.70;;;67.40;;
52067;SDS011;60237;52.338;21.228;2023-06-10T06:43:17;72.65;;;65.78;;
52067;SDS011;60237;52.338;21.228;2023-06-10T06:46:02;128.27;;;73.25;;
52067;SDS011;60237;52.338;21.228;2023-06-10T06:48:48;104.13;;;71.60;;
52067;SDS011;60237;52.338;21.228;2023-06-10T06:51:18;131.10;;;47.25;;
52067;SDS011;60237;52.338;21.228;2023-06-10T06:53:45;128.32;;;56.45;;
52067;SDS011;60237;52.338;21.228;2023-06-10T06:56:13;76.03;;;47.30;;
52067;SDS011;60237;52.338;21.228;2023-06-10T06:58:40;110.80;;;57.78;;
52067;SDS011;60237;52.338;21.228;2023-06-10T07:01:07;63.33;;;41.17;;
52067;SDS011;60237;52.338;21.228;2023-06-10T07:03:34;65.15;;;45.03;;
52067;SDS011;60237;52.338;21.228;2023-06-10T07:06:01;76.63;;;41.42;;
52067;SDS011;60237;52.338;21.228;2023-06-10T07:08:28;57.58;;;36.40;;
52067;SDS011;60237;52.338;21.228;2023-06-10T07:10:55;60.30;;;39.50;;
52067;SDS011;60237;52.338;21.228;2023-06-10T07:13:21;47.60;;;30.40;;
52067;SDS011;60237;52.338;21.228;2023-06-10T07:15:48;60.63;;;40.05;;
52067;SDS011;60237;52.338;21.228;2023-06-10T07:18:15;76.43;;;42.95;;
52067;SDS011;60237;52.338;21.228;2023-06-10T07:20:45;54.95;;;48.85;;
52067;SDS011;60237;52.338;21.228;2023-06-10T07:23:12;53.03;;;42.80;;
52067;SDS011;60237;52.338;21.228;2023-06-10T07:25:38;99.55;;;55.25;;
52067;SDS011;60237;52.338;21.228;2023-06-10T07:28:07;62.45;;;56.58;;
52067;SDS011;60237;52.338;21.228;2023-06-10T07:30:33;90.95;;;81.22;;
52067;SDS011;60237;52.338;21.228;2023-06-10T07:33:00;77.25;;;68.93;;
52067;SDS011;60237;52.338;21.228;2023-06-10T07:35:28;72.00;;;65.60;;
52067;SDS011;60237;52.338;21.228;2023-06-10T07:37:55;73.43;;;62.42;;
52067;SDS011;60237;52.338;21.228;2023-06-10T07:40:21;73.70;;;67.47;;
52067;SDS011;60237;52.338;21.228;2023-06-10T07:42:48;89.97;;;61.88;;
52067;SDS011;60237;52.338;21.228;2023-06-10T07:45:15;96.78;;;87.03;;
52067;SDS011;60237;52.338;21.228;2023-06-10T07:47:42;86.15;;;72.15;;
52067;SDS011;60237;52.338;21.228;2023-06-10T07:50:09;135.35;;;67.88;;
52067;SDS011;60237;52.338;21.228;2023-06-10T07:52:35;99.65;;;72.80;;
52067;SDS011;60237;52.338;21.228;2023-06-10T07:55:02;76.32;;;50.55;;
52067;SDS011;60237;52.338;21.228;2023-06-10T08:01:19;53.78;;;48.22;;
52067;SDS011;60237;52.338;21.228;2023-06-10T08:03:46;61.60;;;44.50;;
52067;SDS011;60237;52.338;21.228;2023-06-10T08:06:12;58.25;;;34.83;;
52067;SDS011;60237;52.338;21.228;2023-06-10T08:08:39;82.43;;;38.80;;
52067;SDS011;60237;52.338;21.228;2023-06-10T08:11:13;42.60;;;34.63;;
52067;SDS011;60237;52.338;21.228;2023-06-10T08:13:40;78.40;;;43.75;;
52067;SDS011;60237;52.338;21.228;2023-06-10T08:16:07;120.57;;;42.92;;
52067;SDS011;60237;52.338;21.228;2023-06-10T08:18:35;84.03;;;50.33;;
52067;SDS011;60237;52.338;21.228;2023-06-10T08:21:02;76.10;;;48.72;;
52067;SDS011;60237;52.338;21.228;2023-06-10T08:23:29;47.63;;;33.83;;
52067;SDS011;60237;52.338;21.228;2023-06-10T08:25:56;86.10;;;49.72;;
52067;SDS011;60237;52.338;21.228;2023-06-10T08:28:22;87.05;;;39.75;;
52067;SDS011;60237;52.338;21.228;2023-06-10T08:30:49;60.17;;;42.63;;
52067;SDS011;60237;52.338;21.228;2023-06-10T08:33:16;58.08;;;52.42;;
52067;SDS011;60237;52.338;21.228;2023-06-10T08:35:43;80.05;;;45.15;;
52067;SDS011;60237;52.338;21.228;2023-06-10T08:38:10;71.88;;;50.28;;
52067;SDS011;60237;52.338;21.228;2023-06-10T08:40:37;85.18;;;47.55;;
52067;SDS011;60237;52.338;21.228;2023-06-10T08:43:07;49.60;;;41.75;;
52067;SDS011;60237;52.338;21.228;2023-06-10T08:45:35;60.50;;;45.42;;
52067;SDS011;60237;52.338;21.228;2023-06-10T08:48:05;53.10;;;40.03;;
52067;SDS011;60237;52.338;21.228;2023-06-10T08:50:38;62.97;;;44.67;;
52067;SDS011;60237;52.338;21.228;2023-06-10T08:53:06;60.00;;;32.28;;
52067;SDS011;60237;52.338;21.228;2023-06-10T08:55:37;78.35;;;38.08;;
52067;SDS011;60237;52.338;21.228;2023-06-10T08:58:05;41.35;;;34.78;;
52067;SDS011;60237;52.338;21.228;2023-06-10T09:00:32;57.53;;;32.85;;
52067;SDS011;60237;52.338;21.228;2023-06-10T09:02:59;46.35;;;30.05;;
52067;SDS011;60237;52.338;21.228;2023-06-10T09:05:32;48.20;;;34.65;;
52067;SDS011;60237;52.338;21.228;2023-06-10T09:08:00;65.90;;;36.83;;
52067;SDS011;60237;52.338;21.228;2023-06-10T09:10:26;38.03;;;29.98;;
52067;SDS011;60237;52.338;21.228;2023-06-10T09:12:53;81.20;;;33.88;;
52067;SDS011;60237;52.338;21.228;2023-06-10T09:15:20;66.45;;;59.67;;
52067;SDS011;60237;52.338;21.228;2023-06-10T09:17:47;73.65;;;63.05;;
52067;SDS011;60237;52.338;21.228;2023-06-10T09:20:14;64.97;;;58.97;;
52067;SDS011;60237;52.338;21.228;2023-06-10T09:22:41;110.13;;;68.10;;
52067;SDS011;60237;52.338;21.228;2023-06-10T09:25:10;61.58;;;53.65;;
52067;SDS011;60237;52.338;21.228;2023-06-10T09:30:24;68.30;;;53.83;;
52067;SDS011;60237;52.338;21.228;2023-06-10T09:32:52;110.65;;;56.60;;
52067;SDS011;60237;52.338;21.228;2023-06-10T09:35:19;71.20;;;60.38;;
52067;SDS011;60237;52.338;21.228;2023-06-10T09:37:46;127.18;;;59.00;;
52067;SDS011;60237;52.338;21.228;2023-06-10T09:40:16;55.83;;;49.42;;
52067;SDS011;60237;52.338;21.228;2023-06-10T09:42:42;48.13;;;42.88;;
52067;SDS011;60237;52.338;21.228;2023-06-10T09:45:09;80.93;;;49.38;;
52067;SDS011;60237;52.338;21.228;2023-06-10T09:47:36;65.95;;;54.47;;
52067;SDS011;60237;52.338;21.228;2023-06-10T09:50:03;66.90;;;52.55;;
52067;SDS011;60237;52.338;21.228;2023-06-10T09:52:30;59.45;;;49.53;;
52067;SDS011;60237;52.338;21.228;2023-06-10T09:55:00;52.60;;;47.28;;
52067;SDS011;60237;52.338;21.228;2023-06-10T09:57:31;57.10;;;49.80;;
52067;SDS011;60237;52.338;21.228;2023-06-10T10:00:06;50.20;;;45.20;;
52067;SDS011;60237;52.338;21.228;2023-06-10T10:02:55;79.63;;;55.33;;
52067;SDS011;60237;52.338;21.228;2023-06-10T10:05:22;55.58;;;49.47;;
52067;SDS011;60237;52.338;21.228;2023-06-10T10:07:50;90.80;;;58.53;;
52067;SDS011;60237;52.338;21.228;2023-06-10T10:10:18;57.65;;;51.90;;
52067;SDS011;60237;52.338;21.228;2023-06-10T10:12:48;56.20;;;50.72;;
52067;SDS011;60237;52.338;21.228;2023-06-10T10:15:17;82.78;;;53.72;;
52067;SDS011;60237;52.338;21.228;2023-06-10T10:17:46;58.03;;;46.83;;
52067;SDS011;60237;52.338;21.228;2023-06-10T10:20:14;52.28;;;45.20;;
52067;SDS011;60237;52.338;21.228;2023-06-10T10:22:44;82.63;;;54.45;;
52067;SDS011;60237;52.338;21.228;2023-06-10T10:25:17;73.15;;;54.47;;
52067;SDS011;60237;52.338;21.228;2023-06-10T10:28:34;54.42;;;48.72;;
52067;SDS011;60237;52.338;21.228;2023-06-10T10:30:40;55.30;;;49.03;;
52067;SDS011;60237;52.338;21.228;2023-06-10T10:33:12;60.05;;;45.25;;
52067;SDS011;60237;52.338;21.228;2023-06-10T10:35:39;74.75;;;50.95;;
52067;SDS011;60237;52.338;21.228;2023-06-10T10:38:06;68.15;;;48.45;;
52067;SDS011;60237;52.338;21.228;2023-06-10T10:40:32;98.93;;;67.47;;
52067;SDS011;60237;52.338;21.228;2023-06-10T10:42:59;55.83;;;50.42;;
52067;SDS011;60237;52.338;21.228;2023-06-10T10:45:29;59.38;;;52.95;;
52067;SDS011;60237;52.338;21.228;2023-06-10T10:47:56;74.13;;;65.30;;
52067;SDS011;60237;52.338;21.228;2023-06-10T10:50:24;74.50;;;66.47;;
52067;SDS011;60237;52.338;21.228;2023-06-10T10:55:21;82.22;;;73.80;;
52067;SDS011;60237;52.338;21.228;2023-06-10T10:57:58;58.30;;;46.75;;
52067;SDS011;60237;52.338;21.228;2023-06-10T11:00:32;65.85;;;59.38;;
52067;SDS011;60237;52.338;21.228;2023-06-10T11:03:08;64.78;;;58.40;;
52067;SDS011;60237;52.338;21.228;2023-06-10T11:05:40;67.22;;;53.90;;
52067;SDS011;60237;52.338;21.228;2023-06-10T11:08:08;62.25;;;53.92;;
52067;SDS011;60237;52.338;21.228;2023-06-10T11:10:39;64.80;;;52.97;;
52067;SDS011;60237;52.338;21.228;2023-06-10T11:13:07;58.15;;;49.35;;
52067;SDS011;60237;52.338;21.228;2023-06-10T11:15:37;38.58;;;34.60;;
52067;SDS011;60237;52.338;21.228;2023-06-10T11:18:11;27.77;;;24.40;;
52067;SDS011;60237;52.338;21.228;2023-06-10T11:20:42;33.50;;;20.42;;
52067;SDS011;60237;52.338;21.228;2023-06-10T11:23:08;66.75;;;17.77;;
52067;SDS011;60237;52.338;21.228;2023-06-10T11:25:38;36.25;;;16.15;;
52067;SDS011;60237;52.338;21.228;2023-06-10T11:28:17;17.92;;;13.18;;
52067;SDS011;60237;52.338;21.228;2023-06-10T11:30:43;88.95;;;16.30;;
52067;SDS011;60237;52.338;21.228;2023-06-10T11:33:14;66.80;;;16.15;;
52067;SDS011;60237;52.338;21.228;2023-06-10T11:35:41;50.30;;;15.88;;
52067;SDS011;60237;52.338;21.228;2023-06-10T11:38:09;40.28;;;13.63;;
52067;SDS011;60237;52.338;21.228;2023-06-10T11:40:36;32.95;;;13.82;;
52067;SDS011;60237;52.338;21.228;2023-06-10T11:43:03;33.63;;;12.90;;
52067;SDS011;60237;52.338;21.228;2023-06-10T11:45:30;22.92;;;14.77;;
52067;SDS011;60237;52.338;21.228;2023-06-10T11:47:59;37.13;;;24.52;;
52067;SDS011;60237;52.338;21.228;2023-06-10T11:50:27;35.05;;;5.82;;
52067;SDS011;60237;52.338;21.228;2023-06-10T11:52:54;158.02;;;17.52;;
52067;SDS011;60237;52.338;21.228;2023-06-10T11:55:22;24.13;;;6.32;;
52067;SDS011;60237;52.338;21.228;2023-06-10T11:57:48;20.13;;;4.95;;
52067;SDS011;60237;52.338;21.228;2023-06-10T12:00:23;146.07;;;134.48;;
52067;SDS011;60237;52.338;21.228;2023-06-10T12:02:55;309.63;;;286.10;;
52067;SDS011;60237;52.338;21.228;2023-06-10T12:08:07;125.25;;;83.43;;
52067;SDS011;60237;52.338;21.228;2023-06-10T12:10:39;218.50;;;200.93;;
52067;SDS011;60237;52.338;21.228;2023-06-10T12:13:06;276.00;;;254.18;;
52067;SDS011;60237;52.338;21.228;2023-06-10T12:15:33;163.30;;;150.85;;
52067;SDS011;60237;52.338;21.228;2023-06-10T12:17:59;856.08;;;778.75;;
52067;SDS011;60237;52.338;21.228;2023-06-10T12:20:29;365.30;;;337.20;;
52067;SDS011;60237;52.338;21.228;2023-06-10T12:22:56;277.02;;;249.57;;
52067;SDS011;60237;52.338;21.228;2023-06-10T12:25:27;384.05;;;276.83;;
52067;SDS011;60237;52.338;21.228;2023-06-10T12:27:55;80.25;;;64.88;;
52067;SDS011;60237;52.338;21.228;2023-06-10T12:30:22;62.72;;;21.95;;
52067;SDS011;60237;52.338;21.228;2023-06-10T12:32:51;47.22;;;8.43;;
52067;SDS011;60237;52.338;21.228;2023-06-10T12:35:20;49.35;;;24.73;;
52067;SDS011;60237;52.338;21.228;2023-06-10T12:40:44;78.00;;;10.85;;
52067;SDS011;60237;52.338;21.228;2023-06-10T12:43:11;37.05;;;6.30;;
52067;SDS011;60237;52.338;21.228;2023-06-10T12:45:39;52.65;;;7.70;;
52067;SDS011;60237;52.338;21.228;2023-06-10T12:48:11;69.90;;;8.77;;
52067;SDS011;60237;52.338;21.228;2023-06-10T12:50:38;36.15;;;6.65;;
52067;SDS011;60237;52.338;21.228;2023-06-10T12:53:05;42.33;;;6.70;;
52067;SDS011;60237;52.338;21.228;2023-06-10T12:55:32;22.83;;;5.40;;
52067;SDS011;60237;52.338;21.228;2023-06-10T12:57:59;41.15;;;6.78;;
52067;SDS011;60237;52.338;21.228;2023-06-10T13:00:26;23.83;;;5.63;;
52067;SDS011;60237;52.338;21.228;2023-06-10T13:02:56;43.08;;;7.93;;
52067;SDS011;60237;52.338;21.228;2023-06-10T13:05:23;48.05;;;7.05;;
52067;SDS011;60237;52.338;21.228;2023-06-10T13:07:50;103.32;;;14.63;;
52067;SDS011;60237;52.338;21.228;2023-06-10T13:10:17;40.70;;;27.17;;
52067;SDS011;60237;52.338;21.228;2023-06-10T13:12:44;51.67;;;8.30;;
52067;SDS011;60237;52.338;21.228;2023-06-10T13:15:14;38.50;;;8.38;;
52067;SDS011;60237;52.338;21.228;2023-06-10T13:17:42;44.45;;;8.68;;
52067;SDS011;60237;52.338;21.228;2023-06-10T13:20:09;54.65;;;8.55;;
52067;SDS011;60237;52.338;21.228;2023-06-10T13:22:36;34.03;;;7.40;;
52067;SDS011;60237;52.338;21.228;2023-06-10T13:25:03;52.55;;;7.25;;
52067;SDS011;60237;52.338;21.228;2023-06-10T13:27:30;54.08;;;7.95;;
52067;SDS011;60237;52.338;21.228;2023-06-10T13:29:57;77.63;;;9.95;;
52067;SDS011;60237;52.338;21.228;2023-06-10T13:32:23;41.05;;;6.32;;
52067;SDS011;60237;52.338;21.228;2023-06-10T13:34:50;89.00;;;11.95;;
52067;SDS011;60237;52.338;21.228;2023-06-10T13:37:17;36.10;;;6.93;;
52067;SDS011;60237;52.338;21.228;2023-06-10T13:39:45;54.45;;;7.70;;
52067;SDS011;60237;52.338;21.228;2023-06-10T13:42:14;50.45;;;7.90;;
52067;SDS011;60237;52.338;21.228;2023-06-10T13:44:41;39.45;;;6.30;;
52067;SDS011;60237;52.338;21.228;2023-06-10T13:47:08;62.00;;;7.95;;
52067;SDS011;60237;52.338;21.228;2023-06-10T13:49:35;34.60;;;5.53;;
52067;SDS011;60237;52.338;21.228;2023-06-10T13:52:04;34.38;;;5.90;;
52067;SDS011;60237;52.338;21.228;2023-06-10T13:54:31;43.75;;;6.93;;
52067;SDS011;60237;52.338;21.228;2023-06-10T13:56:57;51.22;;;7.00;;
52067;SDS011;60237;52.338;21.228;2023-06-10T13:59:24;54.60;;;8.48;;
52067;SDS011;60237;52.338;21.228;2023-06-10T14:01:51;978.78;;;890.80;;
52067;SDS011;60237;52.338;21.228;2023-06-10T14:04:18;811.63;;;745.50;;
52067;SDS011;60237;52.338;21.228;2023-06-10T14:06:44;849.90;;;783.10;;
52067;SDS011;60237;52.338;21.228;2023-06-10T14:09:12;861.70;;;792.83;;
52067;SDS011;60237;52.338;21.228;2023-06-10T14:11:39;852.47;;;781.47;;
52067;SDS011;60237;52.338;21.228;2023-06-10T14:14:06;780.20;;;710.25;;
52067;SDS011;60237;52.338;21.228;2023-06-10T14:16:33;803.00;;;739.67;;
52067;SDS011;60237;52.338;21.228;2023-06-10T14:19:00;736.50;;;674.28;;
52067;SDS011;60237;52.338;21.228;2023-06-10T14:21:27;939.17;;;863.33;;
52067;SDS011;60237;52.338;21.228;2023-06-10T14:23:54;847.28;;;772.70;;
52067;SDS011;60237;52.338;21.228;2023-06-10T14:26:21;856.42;;;786.17;;
52067;SDS011;60237;52.338;21.228;2023-06-10T14:28:48;825.58;;;756.35;;
52067;SDS011;60237;52.338;21.228;2023-06-10T14:31:16;773.17;;;711.65;;